Time;durP1;ratioP1;P1;durP2;ratioP2;P2;SDS_P1;SDS_P2;PMS_P1;PMS_P2;Temp;Humidity;BMP_temperature;BMP_pressure;BME280_temperature;BME280_humidity;BME280_pressure;Samples;Min_cycle;Max_cycle;Signal;HPM_P1;HPM_P2
2023/07/23 00:01:48;;;;;;;17.80;10.10;;;;;;;11.93;100.00;100568.75;7367500;19;20503;-42
2023/07/23 00:04:20;;;;;;;17.50;9.77;;;;;;;11.94;100.00;100570.50;7393318;19;20436;-42
2023/07/23 00:06:50;;;;;;;16.87;9.00;;;;;;;11.97;100.00;100572.31;7370784;19;20823;-42
2023/07/23 00:09:19;;;;;;;16.53;9.63;;;;;;;11.95;100.00;100567.09;7393368;19;20474;-41
2023/07/23 00:11:49;;;;;;;18.13;10.20;;;;;;;11.96;100.00;100563.69;7368568;19;20531;-40
2023/07/23 00:14:19;;;;;;;18.73;10.80;;;;;;;12.00;100.00;100565.53;7393987;19;20430;-42
2023/07/23 00:16:49;;;;;;;16.60;10.10;;;;;;;12.01;100.00;100567.28;7369106;19;20434;-42
2023/07/23 00:19:21;;;;;;;19.10;9.67;;;;;;;11.95;100.00;100567.09;7394588;19;20428;-40
2023/07/23 00:21:53;;;;;;;16.07;10.70;;;;;;;12.04;100.00;100560.50;7369016;19;20494;-42
2023/07/23 00:24:22;;;;;;;18.40;10.67;;;;;;;12.02;100.00;100557.84;7393382;19;21066;-42
2023/07/23 00:26:52;;;;;;;20.17;11.37;;;;;;;12.06;100.00;100554.56;7369197;19;20446;-42
2023/07/23 00:29:21;;;;;;;16.17;10.00;;;;;;;12.07;100.00;100552.84;7394105;19;20415;-42
2023/07/23 00:31:51;;;;;;;16.37;11.27;;;;;;;12.07;100.00;100550.25;7364324;19;20486;-43
2023/07/23 00:34:23;;;;;;;16.37;10.40;;;;;;;12.08;100.00;100554.59;7395797;19;20758;-43
2023/07/23 00:36:53;;;;;;;18.83;11.07;;;;;;;12.07;100.00;100543.38;7369316;19;20433;-42
2023/07/23 00:39:22;;;;;;;18.73;11.03;;;;;;;12.09;100.00;100544.31;7394637;19;20418;-45
2023/07/23 00:41:52;;;;;;;17.17;10.63;;;;;;;12.10;100.00;100551.22;7370832;19;20581;-44
2023/07/23 00:44:21;;;;;;;18.67;11.27;;;;;;;12.14;100.00;100545.34;7394683;19;20408;-43
2023/07/23 00:46:51;;;;;;;20.43;11.70;;;;;;;12.13;100.00;100542.69;7370477;19;20425;-42
2023/07/23 00:49:23;;;;;;;18.73;10.83;;;;;;;12.14;100.00;100542.75;7394697;19;20479;-42
2023/07/23 00:51:53;;;;;;;19.23;11.97;;;;;;;12.14;100.00;100536.69;7370040;19;20431;-42
2023/07/23 00:54:23;;;;;;;20.13;11.90;;;;;;;12.15;100.00;100538.44;7395104;19;20420;-42
2023/07/23 00:56:53;;;;;;;17.97;10.73;;;;;;;12.14;100.00;100537.56;7369700;19;20439;-42
2023/07/23 00:59:23;;;;;;;19.30;12.10;;;;;;;12.14;100.00;100537.56;7395169;19;20415;-41
2023/07/23 01:01:52;;;;;;;25.80;14.23;;;;;;;12.19;100.00;100531.69;7366116;19;20454;-42
2023/07/23 01:04:25;;;;;;;25.00;12.60;;;;;;;12.19;100.00;100527.38;7394600;19;20408;-42
2023/07/23 01:06:56;;;;;;;26.60;13.60;;;;;;;12.20;100.00;100523.94;7370921;19;20522;-42
2023/07/23 01:09:26;;;;;;;24.60;14.63;;;;;;;12.22;100.00;100529.19;7395311;19;20407;-42
2023/07/23 01:11:57;;;;;;;29.33;14.87;;;;;;;12.23;100.00;100521.47;7369484;19;20970;-42
2023/07/23 01:14:26;;;;;;;24.53;13.83;;;;;;;12.26;100.00;100518.97;7394273;19;20400;-43
2023/07/23 01:16:58;;;;;;;23.67;14.00;;;;;;;12.28;100.00;100519.91;7370418;19;20431;-42
2023/07/23 01:19:30;;;;;;;25.20;14.97;;;;;;;12.29;100.00;100513.91;7394659;19;20482;-41
2023/07/23 01:22:03;;;;;;;23.67;15.23;;;;;;;12.35;100.00;100507.16;7370065;19;20784;-41
2023/07/23 01:24:34;;;;;;;23.57;14.80;;;;;;;12.38;100.00;100494.31;7394808;19;20415;-42
2023/07/23 01:27:04;;;;;;;23.93;15.53;;;;;;;12.40;100.00;100498.69;7370291;19;20423;-42
2023/07/23 01:29:33;;;;;;;25.80;14.73;;;;;;;12.39;100.00;100489.19;7395109;19;20423;-42
2023/07/23 01:32:03;;;;;;;23.50;16.40;;;;;;;12.43;100.00;100488.44;7363973;19;20513;-42
2023/07/23 01:34:32;;;;;;;28.23;16.70;;;;;;;12.43;100.00;100477.22;7394951;19;20407;-42
2023/07/23 01:37:05;;;;;;;26.87;16.30;;;;;;;12.43;100.00;100480.66;7369623;19;21022;-42
2023/07/23 01:39:35;;;;;;;31.70;18.17;;;;;;;12.47;100.00;100473.91;7394566;19;20412;-42
2023/07/23 01:42:05;;;;;;;28.40;17.37;;;;;;;12.49;100.00;100474.81;7368724;19;20498;-39
2023/07/23 01:44:34;;;;;;;27.87;16.60;;;;;;;12.49;100.00;100474.81;7394297;19;21009;-41
2023/07/23 01:47:04;;;;;;;29.20;16.80;;;;;;;12.50;100.00;100473.09;7369730;19;20483;-41
2023/07/23 01:49:33;;;;;;;29.20;17.77;;;;;;;12.53;100.00;100462.84;7394715;19;20415;-42
2023/07/23 01:52:06;;;;;;;27.37;16.87;;;;;;;12.53;100.00;100463.72;7361959;19;20431;-43
2023/07/23 01:54:36;;;;;;;25.97;16.47;;;;;;;12.57;100.00;100454.34;7394284;19;20508;-42
2023/07/23 01:57:06;;;;;;;28.80;18.00;;;;;;;12.58;100.00;100456.09;7368818;19;20435;-42
2023/07/23 01:59:35;;;;;;;30.30;17.17;;;;;;;12.59;100.00;100451.78;7395614;19;20426;-42
2023/07/23 02:02:09;;;;;;;31.10;18.53;;;;;;;12.61;100.00;100444.94;7360206;19;20434;-41
2023/07/23 02:04:38;;;;;;;29.50;18.37;;;;;;;12.62;100.00;100451.88;7391876;19;20773;-42
2023/07/23 02:07:11;;;;;;;29.33;18.27;;;;;;;12.58;100.00;100442.25;7368062;19;20435;-42
2023/07/23 02:09:41;;;;;;;27.10;17.83;;;;;;;12.59;100.00;100451.78;7395775;19;20400;-42
2023/07/23 02:12:11;;;;;;;28.23;17.10;;;;;;;12.61;100.00;100445.81;7368260;19;20552;-43
2023/07/23 02:14:40;;;;;;;26.80;17.37;;;;;;;12.63;100.00;100443.28;7394109;19;20414;-42
2023/07/23 02:17:10;;;;;;;33.77;18.40;;;;;;;12.62;100.00;100438.94;7368183;19;20454;-42
2023/07/23 02:19:40;;;;;;;27.20;16.87;;;;;;;12.64;100.00;100432.97;7394017;19;20420;-42
2023/07/23 02:22:12;;;;;;;28.70;17.20;;;;;;;12.68;100.00;100429.63;7367404;19;20431;-42
2023/07/23 02:24:41;;;;;;;28.90;17.17;;;;;;;12.66;100.00;100423.53;7393660;19;20483;-42
2023/07/23 02:27:11;;;;;;;26.33;16.97;;;;;;;12.69;100.00;100420.16;7368202;19;20986;-42
2023/07/23 02:29:41;;;;;;;28.83;18.13;;;;;;;12.69;100.00;100415.88;7394004;19;20429;-42
2023/07/23 02:32:12;;;;;;;26.80;17.27;;;;;;;12.71;100.00;100410.72;7364504;19;20427;-42
2023/07/23 02:34:42;;;;;;;26.13;16.70;;;;;;;12.74;100.00;100410.81;7393998;19;20817;-42
2023/07/23 02:37:14;;;;;;;27.00;16.20;;;;;;;12.73;100.00;100414.25;7368242;19;20515;-42
2023/07/23 02:39:44;;;;;;;29.93;18.27;;;;;;;12.77;100.00;100412.59;7393253;19;21013;-42
2023/07/23 02:42:13;;;;;;;29.87;18.50;;;;;;;12.76;100.00;100414.31;7366622;19;20749;-42
2023/07/23 02:44:43;;;;;;;30.87;17.70;;;;;;;12.77;100.00;100416.06;7393294;19;20475;-42
2023/07/23 02:47:13;;;;;;;28.60;17.33;;;;;;;12.79;100.00;100424.75;7367741;19;20451;-42
2023/07/23 02:49:42;;;;;;;28.77;18.60;;;;;;;12.81;100.00;100411.84;7393424;19;20414;-42
2023/07/23 02:52:15;;;;;;;29.53;18.07;;;;;;;12.78;100.00;100417.81;7366548;19;20427;-42
2023/07/23 02:54:45;;;;;;;29.03;17.80;;;;;;;12.78;100.00;100420.41;7392667;19;20403;-42
2023/07/23 02:57:14;;;;;;;27.97;17.10;;;;;;;12.74;100.00;100416.00;7367868;19;20431;-42
2023/07/23 02:59:44;;;;;;;28.50;18.33;;;;;;;12.74;100.00;100410.81;7391130;19;20437;-42
2023/07/23 03:02:14;;;;;;;27.67;17.20;;;;;;;12.76;100.00;100403.09;7365685;19;20419;-42
2023/07/23 03:04:44;;;;;;;29.97;17.43;;;;;;;12.73;100.00;100393.53;7391345;19;20408;-42
2023/07/23 03:07:16;;;;;;;29.63;16.70;;;;;;;12.74;100.00;100389.22;7365946;19;20998;-41
2023/07/23 03:09:46;;;;;;;30.57;17.90;;;;;;;12.75;100.00;100386.66;7391361;19;20409;-42
2023/07/23 03:12:15;;;;;;;32.87;18.03;;;;;;;12.76;100.00;100384.97;7367372;19;20426;-42
2023/07/23 03:14:45;;;;;;;29.80;17.83;;;;;;;12.75;100.00;100378.91;7392529;19;20411;-42
2023/07/23 03:17:14;;;;;;;30.10;18.27;;;;;;;12.75;100.00;100384.09;7374246;19;20526;-42
2023/07/23 03:19:44;;;;;;;29.47;17.23;;;;;;;12.76;100.00;100379.81;7397255;19;20403;-43
2023/07/23 03:22:16;;;;;;;27.67;16.63;;;;;;;12.78;100.00;100381.56;7372466;19;20411;-42
2023/07/23 03:24:46;;;;;;;29.83;17.40;;;;;;;12.76;100.00;100378.06;7397440;19;20475;-42
2023/07/23 03:27:15;;;;;;;32.87;16.47;;;;;;;12.77;100.00;100373.78;7372268;19;20435;-42
2023/07/23 03:29:45;;;;;;;29.10;16.73;;;;;;;12.76;100.00;100367.72;7392153;19;20419;-41
2023/07/23 03:32:15;;;;;;;26.57;16.47;;;;;;;12.77;100.00;100372.06;7366523;19;20483;-43
2023/07/23 03:34:44;;;;;;;28.60;16.60;;;;;;;12.74;100.00;100369.41;7396721;19;20410;-41
2023/07/23 03:37:16;;;;;;;25.43;16.40;;;;;;;12.78;100.00;100371.22;7374044;19;20962;-42
2023/07/23 03:39:46;;;;;;;25.43;16.07;;;;;;;12.74;100.00;100364.22;7396998;19;20395;-42
2023/07/23 03:42:15;;;;;;;26.83;15.20;;;;;;;12.72;100.00;100357.25;7372120;19;20858;-42
2023/07/23 03:44:45;;;;;;;27.83;15.90;;;;;;;12.75;100.00;100359.91;7396570;19;20411;-42
2023/07/23 03:47:16;;;;;;;23.93;14.93;;;;;;;12.77;100.00;100353.94;7371877;19;20435;-43
2023/07/23 03:49:47;;;;;;;24.60;15.17;;;;;;;12.78;100.00;100358.25;7396546;19;20424;-42
2023/07/23 03:52:19;;;;;;;22.57;15.30;;;;;;;12.78;100.00;100355.69;7370978;19;20419;-41
2023/07/23 03:54:48;;;;;;;29.23;17.03;;;;;;;12.77;100.00;100361.69;7396400;19;20479;-42
2023/07/23 03:57:18;;;;;;;54.87;22.10;;;;;;;12.77;100.00;100359.09;7372773;19;20423;-42
2023/07/23 03:59:49;;;;;;;27.30;16.23;;;;;;;12.80;100.00;100345.38;7395693;19;20408;-42
2023/07/23 04:02:19;;;;;;;25.07;15.63;;;;;;;12.77;100.00;100353.94;7367697;19;20434;-45
2023/07/23 04:04:48;;;;;;;22.10;14.90;;;;;;;12.76;100.00;100359.94;7396058;19;20471;-42
2023/07/23 04:07:23;;;;;;;27.23;15.60;;;;;;;12.76;100.00;100354.78;7371320;19;20443;-44
2023/07/23 04:09:52;;;;;;;23.20;14.20;;;;;;;12.77;100.00;100353.06;7395548;19;20402;-41
2023/07/23 04:12:22;;;;;;;23.83;15.20;;;;;;;12.75;100.00;100355.59;7371926;19;20467;-42
2023/07/23 04:14:52;;;;;;;22.33;14.70;;;;;;;12.73;100.00;100349.53;7396309;19;20803;-42
2023/07/23 04:17:22;;;;;;;24.73;15.53;;;;;;;12.77;100.00;100346.16;7372199;19;20829;-42
2023/07/23 04:19:51;;;;;;;30.10;15.03;;;;;;;12.74;100.00;100343.50;7395560;19;20416;-42
2023/07/23 04:22:23;;;;;;;25.37;14.93;;;;;;;12.75;100.00;100345.25;7371699;19;20495;-42
2023/07/23 04:24:53;;;;;;;22.30;14.87;;;;;;;12.80;100.00;100338.50;7396678;19;20407;-41
2023/07/23 04:27:23;;;;;;;22.70;14.40;;;;;;;12.78;100.00;100340.16;7369552;19;20448;-42
2023/07/23 04:29:53;;;;;;;24.10;15.40;;;;;;;12.77;100.00;100333.22;7394562;19;20407;-42
2023/07/23 04:32:23;;;;;;;24.30;15.70;;;;;;;12.78;100.00;100328.94;7370681;19;20411;-40
2023/07/23 04:34:53;;;;;;;23.83;14.77;;;;;;;12.80;100.00;100328.13;7395615;19;20816;-43
2023/07/23 04:37:25;;;;;;;27.53;15.73;;;;;;;12.81;100.00;100319.53;7371945;19;20425;-42
2023/07/23 04:39:54;;;;;;;30.17;16.53;;;;;;;12.83;100.00;100312.66;7397817;19;20406;-42
2023/07/23 04:42:24;;;;;;;21.70;14.53;;;;;;;12.87;100.00;100312.75;7370602;19;20430;-42
2023/07/23 04:44:53;;;;;;;26.50;13.83;;;;;;;12.83;100.00;100312.66;7394771;19;20429;-43
2023/07/23 04:47:23;;;;;;;24.17;15.47;;;;;;;12.87;100.00;100303.25;7370483;19;20498;-42
2023/07/23 04:49:53;;;;;;;21.50;14.27;;;;;;;12.89;100.00;100305.91;7394449;19;20407;-42
2023/07/23 04:52:25;;;;;;;27.10;14.10;;;;;;;12.88;100.00;100296.38;7370805;19;20502;-42
2023/07/23 04:54:54;;;;;;;23.80;13.70;;;;;;;12.87;100.00;100298.09;7394771;19;20404;-41
2023/07/23 04:57:24;;;;;;;19.90;12.03;;;;;;;12.88;100.00;100288.63;7371165;19;20857;-41
2023/07/23 04:59:54;;;;;;;20.13;11.53;;;;;;;12.88;100.00;100283.44;7396233;19;20414;-42
2023/07/23 05:02:23;;;;;;;31.53;16.20;;;;;;;12.90;100.00;100281.75;7367772;19;20415;-42
2023/07/23 05:04:53;;;;;;;23.70;13.80;;;;;;;12.91;100.00;100291.25;7394651;19;20826;-42
2023/07/23 05:07:25;;;;;;;17.90;11.33;;;;;;;12.95;100.00;100286.22;7370495;19;20435;-42
2023/07/23 05:09:54;;;;;;;16.80;10.77;;;;;;;12.93;100.00;100276.66;7394706;19;20754;-41
2023/07/23 05:12:24;;;;;;;22.60;12.30;;;;;;;12.97;100.00;100278.47;7369712;19;20439;-42
2023/07/23 05:14:54;;;;;;;17.53;11.20;;;;;;;12.99;100.00;100282.00;7394563;19;20407;-41
2023/07/23 05:17:24;;;;;;;22.70;12.13;;;;;;;13.00;100.00;100286.34;7370679;19;20434;-41
2023/07/23 05:19:53;;;;;;;18.90;11.10;;;;;;;13.00;100.00;100283.75;7393859;19;20742;-41
2023/07/23 05:22:25;;;;;;;17.53;9.80;;;;;;;13.00;100.00;100278.56;7369715;19;20423;-41
2023/07/23 05:24:55;;;;;;;16.90;9.90;;;;;;;12.98;100.00;100288.03;7393561;19;20433;-42
2023/07/23 05:27:25;;;;;;;16.00;10.20;;;;;;;12.95;100.00;100291.41;7370298;19;20502;-41
2023/07/23 05:29:54;;;;;;;18.70;10.27;;;;;;;12.97;100.00;100299.19;7393872;19;20490;-42
2023/07/23 05:32:24;;;;;;;17.50;9.90;;;;;;;12.96;100.00;100300.03;7365330;19;20418;-42
2023/07/23 05:34:54;;;;;;;21.90;10.80;;;;;;;12.98;100.00;100290.59;7394040;19;20421;-41
2023/07/23 05:37:26;;;;;;;22.63;10.30;;;;;;;12.93;100.00;100306.00;7369800;19;20495;-41
2023/07/23 05:39:56;;;;;;;16.33;10.03;;;;;;;12.95;100.00;100296.59;7393979;19;20407;-42
2023/07/23 05:42:25;;;;;;;18.47;9.90;;;;;;;12.97;100.00;100299.19;7367544;19;20504;-42
2023/07/23 05:44:55;;;;;;;15.37;9.10;;;;;;;12.96;100.00;100292.25;7394932;19;20409;-41
2023/07/23 05:47:24;;;;;;;16.57;10.50;;;;;;;12.97;100.00;100283.66;7369491;19;20502;-40
2023/07/23 05:49:54;;;;;;;16.27;8.93;;;;;;;12.97;100.00;100278.47;7393323;19;20411;-40
2023/07/23 05:52:27;;;;;;;18.50;8.83;;;;;;;13.00;100.00;100290.63;7369310;19;20427;-38
2023/07/23 05:54:56;;;;;;;18.17;8.90;;;;;;;12.99;100.00;100286.28;7394542;19;20438;-40
2023/07/23 05:57:26;;;;;;;19.00;9.30;;;;;;;13.04;100.00;100290.75;7369525;19;20419;-41
2023/07/23 05:59:56;;;;;;;18.03;9.30;;;;;;;13.01;100.00;100293.25;7393226;19;20479;-41
2023/07/23 06:02:25;;;;;;;13.93;9.87;;;;;;;13.04;100.00;100290.75;7363402;19;20498;-39
2023/07/23 06:04:55;;;;;;;13.47;8.10;;;;;;;13.04;100.00;100287.28;7394814;19;20418;-41
2023/07/23 06:07:27;;;;;;;14.40;8.90;;;;;;;13.03;100.00;100283.81;7368985;19;20452;-41
2023/07/23 06:09:57;;;;;;;18.77;8.67;;;;;;;13.09;100.00;100289.13;7393278;19;20410;-41
2023/07/23 06:12:27;;;;;;;16.30;8.80;;;;;;;13.08;100.00;100279.63;7367960;19;20419;-39
2023/07/23 06:14:57;;;;;;;13.07;7.90;;;;;;;13.13;100.00;100273.69;7392717;19;20395;-41
2023/07/23 06:17:26;;;;;;;13.20;8.53;;;;;;;13.15;100.00;100278.06;7368964;19;20450;-37
2023/07/23 06:19:56;;;;;;;10.90;7.20;;;;;;;13.12;100.00;100266.75;7392326;19;20778;-40
2023/07/23 06:22:28;;;;;;;13.67;8.90;;;;;;;13.18;100.00;100270.34;7367481;19;20423;-40
2023/07/23 06:24:58;;;;;;;12.00;7.40;;;;;;;13.21;100.00;100267.84;7392837;19;20936;-39
2023/07/23 06:27:27;;;;;;;14.57;8.60;;;;;;;13.19;100.00;100271.22;7368013;19;20523;-40
2023/07/23 06:29:57;;;;;;;12.60;8.27;;;;;;;13.28;100.00;100275.75;7392162;19;20403;-42
2023/07/23 06:32:26;;;;;;;14.20;8.67;;;;;;;13.27;100.00;100267.09;7362511;19;20423;-40
2023/07/23 06:34:56;;;;;;;17.90;8.87;;;;;;;13.30;100.00;100262.00;7391899;19;20433;-38
2023/07/23 06:37:28;;;;;;;15.43;8.63;;;;;;;13.32;100.00;100262.91;7367582;19;20431;-36
2023/07/23 06:39:58;;;;;;;17.00;10.03;;;;;;;13.30;100.00;100262.00;7391520;19;20414;-40
2023/07/23 06:42:27;;;;;;;16.83;8.90;;;;;;;13.41;100.00;100258.75;7367501;19;20514;-37
2023/07/23 06:44:57;;;;;;;15.40;8.20;;;;;;;13.38;100.00;100264.75;7392230;19;20407;-41
2023/07/23 06:47:27;;;;;;;13.80;8.33;;;;;;;13.42;100.00;100270.84;7368587;19;20431;-38
2023/07/23 06:49:56;;;;;;;14.07;8.20;;;;;;;13.40;100.00;100268.25;7390213;19;20435;-40
2023/07/23 06:52:28;;;;;;;15.60;8.17;;;;;;;13.45;100.00;100270.94;7365731;19;21018;-40
2023/07/23 06:54:58;;;;;;;18.17;9.77;;;;;;;13.50;100.00;100264.19;7392060;19;20488;-38
2023/07/23 06:57:27;;;;;;;15.77;10.27;;;;;;;13.52;100.00;100267.69;7367635;19;20502;-38
2023/07/23 06:59:57;;;;;;;14.60;8.90;;;;;;;13.50;100.00;100265.03;7390860;19;20745;-38
2023/07/23 07:02:26;;;;;;;16.87;9.53;;;;;;;13.48;100.00;100255.47;7363112;19;20823;-39
2023/07/23 07:04:56;;;;;;;17.83;9.17;;;;;;;13.54;100.00;100255.63;7390985;19;20987;-41
2023/07/23 07:07:28;;;;;;;14.97;9.40;;;;;;;13.54;100.00;100247.84;7367347;19;20427;-38
2023/07/23 07:09:59;;;;;;;11.47;8.17;;;;;;;13.54;100.00;100250.44;7390821;19;20408;-40
2023/07/23 07:12:28;;;;;;;13.20;8.47;;;;;;;13.53;100.00;100246.09;7365701;19;21011;-40
2023/07/23 07:14:58;;;;;;;18.97;9.80;;;;;;;13.54;100.00;100250.44;7392291;19;20411;-39
2023/07/23 07:17:28;;;;;;;13.33;8.43;;;;;;;13.55;100.00;100246.13;7366970;19;20873;-41
2023/07/23 07:19:57;;;;;;;14.70;9.50;;;;;;;13.55;100.00;100236.66;7390322;19;20408;-40
2023/07/23 07:22:29;;;;;;;12.57;9.27;;;;;;;13.55;100.00;100231.47;7365935;19;20835;-40
2023/07/23 07:24:59;;;;;;;11.63;8.47;;;;;;;13.61;100.00;100236.78;7390711;19;20411;-41
2023/07/23 07:27:29;;;;;;;15.90;8.87;;;;;;;13.63;100.00;100240.28;7365735;19;20431;-40
2023/07/23 07:29:58;;;;;;;17.50;9.60;;;;;;;13.60;100.00;100235.00;7389267;19;20486;-40
2023/07/23 07:32:29;;;;;;;16.43;9.77;;;;;;;13.68;100.00;100229.13;7362124;19;20794;-41
2023/07/23 07:34:59;;;;;;;16.40;9.60;;;;;;;13.61;100.00;100223.81;7390019;19;20411;-39
2023/07/23 07:37:31;;;;;;;15.57;10.50;;;;;;;13.66;100.00;100230.81;7366174;19;20521;-38
2023/07/23 07:40:01;;;;;;;19.33;9.70;;;;;;;13.71;100.00;100224.00;7391906;19;20414;-39
2023/07/23 07:42:30;;;;;;;25.73;12.07;;;;;;;13.75;100.00;100231.88;7366839;19;20871;-40
2023/07/23 07:45:01;;;;;;;16.67;9.67;;;;;;;13.84;100.00;100217.34;7389907;19;20420;-41
2023/07/23 07:47:30;;;;;;;23.93;11.50;;;;;;;13.87;100.00;100215.69;7366420;19;20431;-41
2023/07/23 07:50:00;;;;;;;19.77;11.50;;;;;;;13.86;100.00;100216.56;7389563;19;20440;-41
2023/07/23 07:52:32;;;;;;;19.40;10.77;;;;;;;13.89;100.00;100215.69;7365439;19;20505;-42
2023/07/23 07:55:02;;;;;;;17.33;11.60;;;;;;;13.92;100.00;100215.78;7389826;19;20478;-41
2023/07/23 07:57:32;;;;;;;23.17;13.03;;;;;;;13.89;100.00;100211.41;7365516;19;20442;-41
2023/07/23 08:00:06;;;;;;;17.20;11.43;;;;;;;13.89;100.00;100211.41;7389439;19;20407;-40
2023/07/23 08:02:37;;;;;;;19.50;10.97;;;;;;;13.97;100.00;100208.97;7365985;19;20424;-41
2023/07/23 08:05:07;;;;;;;20.90;11.10;;;;;;;13.98;100.00;100205.53;7396632;19;20403;-42
2023/07/23 08:07:41;;;;;;;15.80;9.63;;;;;;;13.99;100.00;100209.88;7372640;19;20430;-41
2023/07/23 08:10:11;;;;;;;16.10;9.70;;;;;;;13.99;100.00;100209.88;7395911;19;20483;-41
2023/07/23 08:12:40;;;;;;;19.67;11.20;;;;;;;14.01;100.00;100205.56;7372719;19;20419;-42
2023/07/23 08:15:11;;;;;;;16.00;10.30;;;;;;;13.98;100.00;100202.03;7395889;19;20417;-41
2023/07/23 08:17:42;;;;;;;17.80;10.90;;;;;;;14.12;100.00;100195.41;7372381;19;20447;-40
2023/07/23 08:20:14;;;;;;;18.57;11.27;;;;;;;14.16;100.00;100199.78;7395915;19;20482;-40
2023/07/23 08:22:46;;;;;;;14.97;10.00;;;;;;;14.18;100.00;100194.63;7372838;19;20431;-44
2023/07/23 08:25:17;;;;;;;17.00;10.50;;;;;;;14.22;100.00;100187.78;7396810;19;20412;-40
2023/07/23 08:27:48;;;;;;;17.80;10.47;;;;;;;14.23;100.00;100190.41;7371784;19;20430;-41
2023/07/23 08:30:18;;;;;;;17.40;10.70;;;;;;;14.29;100.00;100194.81;7395520;19;20499;-40
2023/07/23 08:32:51;;;;;;;16.00;10.63;;;;;;;14.25;100.00;100193.03;7371325;19;20423;-38
2023/07/23 08:35:21;;;;;;;18.60;10.23;;;;;;;14.28;100.00;100188.78;7396440;19;20403;-41
2023/07/23 08:37:54;;;;;;;17.00;10.63;;;;;;;14.28;100.00;100174.91;7371511;19;20427;-42
2023/07/23 08:40:26;;;;;;;14.20;9.70;;;;;;;14.34;100.00;100176.72;7395159;19;20478;-40
2023/07/23 08:43:20;;;;;;;14.97;9.80;;;;;;;14.39;100.00;100188.97;7371683;19;20518;-39
2023/07/23 08:46:17;;;;;;;18.57;10.60;;;;;;;14.47;100.00;100193.41;7395616;19;20416;-38
2023/07/23 08:49:03;;;;;;;19.03;11.73;;;;;;;14.51;100.00;100195.22;7373571;19;20797;-40
2023/07/23 08:51:42;;;;;;;16.83;10.70;;;;;;;14.45;100.00;100183.88;7371393;19;20807;-41
2023/07/23 08:54:16;;;;;;;16.40;10.07;;;;;;;14.53;100.00;100183.13;7397242;19;20414;-42
2023/07/23 08:56:46;;;;;;;16.90;10.73;;;;;;;14.58;100.00;100176.28;7371745;19;20423;-43
2023/07/23 08:59:15;;;;;;;17.50;10.73;;;;;;;14.60;100.00;100179.75;7397025;19;20418;-40
2023/07/23 09:01:45;;;;;;;20.93;12.13;;;;;;;14.74;100.00;100182.63;7367462;19;20434;-41
2023/07/23 09:04:15;;;;;;;20.37;12.70;;;;;;;14.79;100.00;100193.97;7394516;19;20931;-42
2023/07/23 09:06:45;;;;;;;17.97;10.07;;;;;;;14.86;100.00;100189.72;7372080;19;20435;-41
2023/07/23 09:09:18;;;;;;;14.83;9.90;;;;;;;14.89;100.00;100179.38;7394030;19;21008;-41
2023/07/23 09:11:48;;;;;;;16.93;9.87;;;;;;;14.87;100.00;100167.22;7369503;19;20854;-41
2023/07/23 09:14:18;;;;;;;15.67;9.80;;;;;;;14.91;100.00;100167.28;7393507;19;20487;-41
2023/07/23 09:16:49;;;;;;;16.90;9.77;;;;;;;14.97;100.00;100159.59;7369990;19;20420;-42
2023/07/23 09:19:24;;;;;;;13.33;9.30;;;;;;;14.86;100.00;100161.16;7394211;19;20411;-40
2023/07/23 09:21:58;;;;;;;17.07;9.17;;;;;;;14.81;100.00;100168.88;7368944;19;20415;-40
2023/07/23 09:24:34;;;;;;;18.33;8.93;;;;;;;14.92;100.00;100175.97;7394278;19;20487;-42
2023/07/23 09:27:04;;;;;;;16.50;9.80;;;;;;;14.98;100.00;100176.91;7369852;19;20430;-40
2023/07/23 09:29:37;;;;;;;15.93;9.77;;;;;;;15.10;100.00;100176.22;7394300;19;20407;-40
2023/07/23 09:32:18;;;;;;;14.30;9.43;;;;;;;15.07;100.00;100165.78;7363551;19;20423;-42
2023/07/23 09:34:48;;;;;;;13.20;9.47;;;;;;;15.04;100.00;100168.34;7394030;19;20432;-42
2023/07/23 09:37:18;;;;;;;11.70;8.97;;;;;;;15.04;100.00;100170.06;7370099;19;20423;-41
2023/07/23 09:39:50;;;;;;;14.23;9.17;;;;;;;15.08;100.00;100166.66;7392939;19;20998;-42
2023/07/23 09:42:23;;;;;;;17.20;9.67;;;;;;;15.01;100.00;100164.84;7368525;19;21286;-40
2023/07/23 09:44:53;;;;;;;14.93;9.00;;;;;;;15.10;100.00;100167.53;7394062;19;20756;-40
2023/07/23 09:47:27;;;;;;;14.83;9.90;;;;;;;15.06;100.00;100174.44;7369574;19;20427;-40
2023/07/23 09:49:56;;;;;;;18.93;10.03;;;;;;;15.09;100.00;100178.78;7395566;19;20409;-42
2023/07/23 09:52:26;;;;;;;16.70;10.20;;;;;;;15.14;100.00;100171.94;7368605;19;20441;-41
2023/07/23 09:54:58;;;;;;;15.30;9.87;;;;;;;15.17;100.00;100171.97;7392663;19;20414;-40
2023/07/23 09:57:29;;;;;;;16.47;9.40;;;;;;;15.25;100.00;100165.16;7369798;19;20422;-42
2023/07/23 10:00:00;;;;;;;15.60;10.57;;;;;;;15.33;100.00;100156.59;7392366;19;21293;-41
2023/07/23 10:02:31;;;;;;;17.53;10.80;;;;;;;15.39;100.00;100154.94;7363816;19;20446;-41
2023/07/23 10:05:01;;;;;;;14.07;10.10;;;;;;;15.24;100.00;100152.16;7385411;19;20419;-39
2023/07/23 10:07:31;;;;;;;19.80;11.57;;;;;;;15.32;100.00;100155.72;7361210;19;20514;-41
2023/07/23 10:10:04;;;;;;;16.10;9.70;;;;;;;15.39;100.00;100162.72;7388327;19;20440;-42
2023/07/23 10:12:33;;;;;;;18.33;10.90;;;;;;;15.50;100.00;100152.44;7364293;19;20810;-39
2023/07/23 10:15:04;;;;;;;19.93;10.03;;;;;;;15.49;100.00;100148.13;7389609;19;20403;-41
2023/07/23 10:17:36;;;;;;;13.70;9.60;;;;;;;15.52;100.00;100148.16;7365560;19;20435;-36
2023/07/23 10:20:07;;;;;;;19.37;11.00;;;;;;;15.67;100.00;100151.78;7389494;19;20411;-42
2023/07/23 10:22:40;;;;;;;13.83;10.00;;;;;;;15.70;100.00;100154.44;7365693;19;20421;-40
2023/07/23 10:25:30;;;;;;;16.90;10.70;;;;;;;15.88;100.00;100151.16;7386922;19;20411;-39
2023/07/23 10:28:06;;;;;;;17.70;11.37;;;;;;;15.82;100.00;100145.00;7365459;19;20514;-36
2023/07/23 10:30:37;;;;;;;16.73;9.87;;;;;;;15.83;100.00;100144.16;7390463;19;20415;-41
2023/07/23 10:33:31;;;;;;;16.27;10.80;;;;;;;16.12;100.00;100152.28;7361449;19;20435;-40
2023/07/23 10:36:07;;;;;;;15.73;10.93;;;;;;;15.99;100.00;100146.06;7389977;19;20412;-41
2023/07/23 10:38:38;;;;;;;15.50;9.47;;;;;;;16.00;100.00;100157.38;7369225;19;20447;-41
2023/07/23 10:41:10;;;;;;;15.50;10.23;;;;;;;16.01;100.00;100159.97;7366097;19;20411;-41
2023/07/23 10:43:44;;;;;;;25.63;11.33;;;;;;;16.02;100.00;100166.06;7391789;19;21104;-41
2023/07/23 10:46:15;;;;;;;16.33;9.93;;;;;;;15.97;100.00;100155.59;7367523;19;20523;-40
2023/07/23 10:48:45;;;;;;;17.90;11.30;;;;;;;16.00;100.00;100157.38;7390130;19;20407;-41
2023/07/23 10:51:15;;;;;;;17.00;10.57;;;;;;;15.95;100.00;100157.34;7367179;19;20766;-41
2023/07/23 10:53:56;;;;;;;16.97;10.37;;;;;;;15.94;100.00;100150.34;7390638;19;20480;-41
2023/07/23 10:56:35;;;;;;;17.20;11.47;;;;;;;15.91;100.00;100155.50;7366605;19;20779;-42
2023/07/23 10:59:06;;;;;;;17.60;11.97;;;;;;;16.10;100.00;100146.16;7389921;19;20479;-38
2023/07/23 11:01:38;;;;;;;18.43;11.10;;;;;;;16.07;100.00;100148.75;7363523;19;20433;-43
2023/07/23 11:04:11;;;;;;;15.30;10.97;;;;;;;16.09;100.00;100148.78;7389574;19;20416;-41
2023/07/23 11:06:42;;;;;;;19.03;11.53;;;;;;;16.16;100.00;100150.56;7366560;19;20490;-43
2023/07/23 11:09:13;;;;;;;18.33;11.13;;;;;;;16.20;100.00;100155.81;7384975;19;20518;-42
2023/07/23 11:11:45;;;;;;;19.83;12.00;;;;;;;16.17;100.00;100144.50;7364467;19;20411;-42
2023/07/23 11:14:20;;;;;;;16.73;9.90;;;;;;;16.13;100.00;100145.31;7390684;19;20405;-42
2023/07/23 11:16:50;;;;;;;15.27;10.43;;;;;;;16.10;100.00;100145.31;7366387;19;21177;-40
2023/07/23 11:19:21;;;;;;;15.70;9.33;;;;;;;16.06;100.00;100145.28;7390211;19;20954;-39
2023/07/23 11:21:52;;;;;;;15.40;9.67;;;;;;;15.96;100.00;100161.66;7365664;19;20493;-40